Time;durP1;ratioP1;P1;durP2;ratioP2;P2;SDS_P1;SDS_P2;PMS_P1;PMS_P2;Temp;Humidity;BMP_temperature;BMP_pressure;BME280_temperature;BME280_humidity;BME280_pressure;Samples;Min_cycle;Max_cycle;Signal;HPM_P1;HPM_P2
2022/06/05 00:01:53;;;;;;;0.30;0.30;;;21.60;99.90;;;;;;4951113;29;20028;-72
2022/06/05 00:04:50;;;;;;;1.50;0.47;;;21.70;99.90;;;;;;4877883;29;20036;-72
2022/06/05 00:07:37;;;;;;;0.10;0.10;;;21.60;99.90;;;;;;4935968;29;20023;-73
2022/06/05 00:10:17;;;;;;;1.40;0.70;;;21.70;99.90;;;;;;4951660;29;20436;-71
2022/06/05 00:13:21;;;;;;;0.35;0.35;;;21.60;99.90;;;;;;4951207;29;20036;-71
2022/06/05 00:15:47;;;;;;;0.93;0.93;;;21.60;99.90;;;;;;4952214;29;20085;-72
2022/06/05 00:18:13;;;;;;;1.65;0.30;;;21.60;99.90;;;;;;4951841;28;20039;-72
2022/06/05 00:20:44;;;;;;;0.10;0.10;;;21.60;99.90;;;;;;4950114;29;20118;-71
2022/06/05 00:23:11;;;;;;;0.35;0.35;;;21.60;99.90;;;;;;4950821;29;20028;-72
2022/06/05 00:26:18;;;;;;;1.02;0.95;;;21.70;99.90;;;;;;4951062;29;20030;-72
2022/06/05 00:28:53;;;;;;;1.75;0.73;;;21.60;99.90;;;;;;4950289;29;20124;-72
2022/06/05 00:31:47;;;;;;;0.00;0.00;;;21.70;99.90;;;;;;4951024;29;20040;-72
2022/06/05 00:34:12;;;;;;;0.98;0.73;;;21.70;99.90;;;;;;4951063;29;20493;-73
2022/06/05 00:37:29;;;;;;;1.73;0.90;;;21.80;99.90;;;;;;4951115;29;20046;-72
2022/06/05 00:40:19;;;;;;;1.23;1.05;;;21.80;99.90;;;;;;4946944;29;20539;-72
2022/06/05 00:42:45;;;;;;;0.38;0.35;;;21.80;99.90;;;;;;4951807;29;20043;-72
2022/06/05 00:45:13;;;;;;;0.35;0.35;;;21.80;99.90;;;;;;4951182;29;20027;-72
2022/06/05 00:47:43;;;;;;;0.20;0.20;;;21.80;99.90;;;;;;4950548;29;20410;-72
2022/06/05 00:50:24;;;;;;;0.05;0.05;;;21.70;99.90;;;;;;4949621;29;20047;-72
2022/06/05 00:52:56;;;;;;;2.55;0.35;;;21.70;99.90;;;;;;4951998;29;20446;-72
2022/06/05 00:55:24;;;;;;;1.65;0.60;;;21.60;99.90;;;;;;4951959;29;20386;-72
2022/06/05 00:57:52;;;;;;;0.30;0.30;;;21.60;99.90;;;;;;4950708;29;20039;-73
2022/06/05 01:00:30;;;;;;;0.80;0.68;;;21.60;99.90;;;;;;4952252;28;20032;-72
2022/06/05 01:02:58;;;;;;;0.65;0.65;;;21.60;99.90;;;;;;4955287;29;20034;-72
2022/06/05 01:05:26;;;;;;;0.00;0.00;;;21.60;99.90;;;;;;4965292;28;20078;-72
2022/06/05 01:07:52;;;;;;;1.08;0.90;;;21.50;99.90;;;;;;4982997;28;20034;-73
2022/06/05 01:10:22;;;;;;;0.13;0.13;;;21.50;99.90;;;;;;4964142;28;20065;-72
2022/06/05 01:13:18;;;;;;;0.30;0.30;;;21.50;99.90;;;;;;4959782;28;20030;-72
2022/06/05 01:16:24;;;;;;;2.72;0.50;;;21.50;99.90;;;;;;4985396;28;20146;-73
2022/06/05 01:19:34;;;;;;;0.57;0.57;;;21.50;99.90;;;;;;4945948;28;20120;-72
2022/06/05 01:22:18;;;;;;;0.25;0.25;;;21.20;99.90;;;;;;4956661;28;20081;-72
2022/06/05 01:25:12;;;;;;;0.10;0.10;;;21.00;99.90;;;;;;4986412;28;20034;-72
2022/06/05 01:27:43;;;;;;;0.70;0.52;;;20.80;99.90;;;;;;4976121;28;20034;-72
2022/06/05 01:30:15;;;;;;;0.52;0.52;;;20.80;99.90;;;;;;4992802;28;20034;-73
2022/06/05 01:33:04;;;;;;;0.10;0.10;;;20.70;99.90;;;;;;4993166;28;20041;-72
2022/06/05 01:36:04;;;;;;;0.38;0.38;;;20.60;99.90;;;;;;4968315;28;20042;-72
2022/06/05 01:38:41;;;;;;;0.77;0.55;;;20.50;99.90;;;;;;4992691;28;20062;-72
2022/06/05 01:41:17;;;;;;;1.30;0.75;;;20.50;99.90;;;;;;4986393;28;20042;-73
2022/06/05 01:43:50;;;;;;;1.08;0.47;;;20.30;99.90;;;;;;4956927;28;20030;-73
2022/06/05 01:46:24;;;;;;;0.38;0.38;;;20.40;99.90;;;;;;4956913;28;20035;-73
2022/06/05 01:49:23;;;;;;;0.30;0.25;;;20.30;99.90;;;;;;4956356;28;20498;-72
2022/06/05 01:51:59;;;;;;;0.45;0.30;;;20.30;99.90;;;;;;4958801;28;20034;-72
2022/06/05 01:54:41;;;;;;;1.20;0.95;;;20.20;99.90;;;;;;4973319;28;20065;-73
2022/06/05 01:57:11;;;;;;;0.50;0.50;;;20.10;99.90;;;;;;4973489;28;20027;-72
2022/06/05 01:59:49;;;;;;;0.55;0.43;;;20.00;99.90;;;;;;4956013;28;20061;-72
2022/06/05 02:02:24;;;;;;;0.20;0.20;;;19.80;99.90;;;;;;4973410;28;20039;-73
2022/06/05 02:05:00;;;;;;;0.88;0.88;;;20.00;99.90;;;;;;4973745;28;20023;-72
2022/06/05 02:07:45;;;;;;;0.22;0.22;;;20.10;99.90;;;;;;4956769;28;20026;-72
2022/06/05 02:10:35;;;;;;;0.20;0.20;;;20.10;99.90;;;;;;4956281;28;20110;-72
2022/06/05 02:13:01;;;;;;;1.77;0.65;;;20.00;99.90;;;;;;4956258;28;20495;-72
2022/06/05 02:15:29;;;;;;;0.82;0.22;;;19.90;99.90;;;;;;4981450;28;20038;-73
2022/06/05 02:18:00;;;;;;;0.03;0.03;;;19.90;99.90;;;;;;4975170;28;20030;-73
2022/06/05 02:20:26;;;;;;;;;;;19.90;99.90;;;;;;4992032;28;20077;-73
2022/06/05 02:22:53;;;;;;;0.20;0.20;;;20.00;99.90;;;;;;4975281;28;19936;-73
2022/06/05 02:25:24;;;;;;;0.35;0.30;;;19.90;99.90;;;;;;4975022;28;20119;-72
2022/06/05 02:27:51;;;;;;;0.10;0.10;;;19.80;99.90;;;;;;4975523;28;20050;-72
2022/06/05 02:30:18;;;;;;;0.40;0.35;;;19.90;99.90;;;;;;4974111;28;20029;-72
2022/06/05 02:33:12;;;;;;;4.13;1.23;;;19.80;99.90;;;;;;4975071;28;20027;-72
2022/06/05 02:36:00;;;;;;;0.98;0.60;;;19.80;99.90;;;;;;4977539;28;20026;-72
2022/06/05 02:38:45;;;;;;;0.25;0.25;;;19.80;99.90;;;;;;4974128;28;20037;-72
2022/06/05 02:41:36;;;;;;;0.15;0.15;;;19.70;99.90;;;;;;4974820;28;20023;-73
2022/06/05 02:45:13;;;;;;;0.30;0.30;;;19.70;99.90;;;;;;4975345;28;20497;-72
2022/06/05 02:47:56;;;;;;;0.35;0.35;;;19.70;99.90;;;;;;4915438;28;20111;-72
2022/06/05 02:50:54;;;;;;;1.42;0.90;;;19.90;99.90;;;;;;4974000;28;20030;-71
2022/06/05 02:53:20;;;;;;;0.95;0.80;;;20.10;99.90;;;;;;4975721;28;20658;-72
2022/06/05 02:55:46;;;;;;;1.25;0.75;;;20.10;99.90;;;;;;4974378;28;20034;-72
2022/06/05 02:58:13;;;;;;;0.35;0.30;;;20.10;99.90;;;;;;4974230;28;20497;-73
2022/06/05 03:00:40;;;;;;;7.32;0.65;;;20.20;99.90;;;;;;4974038;28;20049;-72
2022/06/05 03:05:51;;;;;;;0.13;0.10;;;20.10;99.90;;;;;;4947092;29;20114;-72
2022/06/05 03:08:19;;;;;;;0.10;0.10;;;20.20;99.90;;;;;;4952827;29;20498;-72
2022/06/05 03:10:46;;;;;;;0.73;0.73;;;20.30;99.90;;;;;;4935063;29;20031;-73
2022/06/05 03:13:13;;;;;;;1.75;0.38;;;20.40;99.90;;;;;;4952942;29;20506;-72
2022/06/05 03:15:41;;;;;;;0.20;0.20;;;20.40;99.90;;;;;;4955675;28;20089;-72
2022/06/05 03:18:07;;;;;;;0.20;0.20;;;20.40;99.90;;;;;;4974369;28;20089;-71
2022/06/05 03:20:33;;;;;;;0.10;0.10;;;20.40;99.90;;;;;;4973152;28;20049;-71
2022/06/05 03:22:59;;;;;;;3.03;0.95;;;20.40;99.90;;;;;;4991286;28;20023;-72
2022/06/05 03:25:26;;;;;;;0.10;0.10;;;20.50;99.90;;;;;;4991309;28;20468;-72
2022/06/05 03:27:52;;;;;;;0.43;0.43;;;20.50;99.90;;;;;;4974047;28;20022;-72
2022/06/05 03:30:18;;;;;;;3.20;1.05;;;20.50;99.90;;;;;;4972818;28;20125;-72
2022/06/05 03:32:44;;;;;;;2.75;1.00;;;20.50;99.90;;;;;;4974144;28;20030;-72
2022/06/05 03:35:11;;;;;;;0.75;0.55;;;20.50;99.90;;;;;;4974136;28;20505;-72
2022/06/05 03:37:37;;;;;;;1.20;0.98;;;20.50;99.90;;;;;;4991374;28;20034;-72
2022/06/05 03:40:08;;;;;;;0.85;0.65;;;20.50;99.90;;;;;;4990046;28;20632;-72
2022/06/05 03:42:34;;;;;;;0.50;0.50;;;20.60;99.90;;;;;;4974394;28;20034;-72
2022/06/05 03:44:59;;;;;;;1.15;0.70;;;20.50;99.90;;;;;;4990788;28;20045;-71
2022/06/05 03:47:25;;;;;;;0.13;0.10;;;20.50;99.90;;;;;;4991177;28;20031;-72
2022/06/05 03:49:51;;;;;;;4.90;2.42;;;20.50;99.90;;;;;;4990131;28;20031;-72
2022/06/05 03:52:17;;;;;;;0.90;0.75;;;20.40;99.90;;;;;;4991076;28;20030;-72
2022/06/05 03:54:42;;;;;;;1.05;0.98;;;20.40;99.90;;;;;;4989818;28;20122;-72
2022/06/05 03:57:08;;;;;;;0.60;0.60;;;20.50;99.90;;;;;;4990923;28;20038;-72
2022/06/05 03:59:36;;;;;;;1.45;1.35;;;20.60;99.90;;;;;;4990366;28;20030;-71
2022/06/05 04:02:05;;;;;;;2.95;0.90;;;20.40;99.90;;;;;;4973484;28;20026;-72
2022/06/05 04:04:31;;;;;;;3.10;2.03;;;20.30;99.90;;;;;;4990768;28;20030;-72
2022/06/05 04:06:57;;;;;;;0.10;0.10;;;20.10;99.90;;;;;;4957523;28;20022;-72
2022/06/05 04:09:23;;;;;;;0.22;0.22;;;19.90;99.90;;;;;;4990048;28;20184;-72
2022/06/05 04:11:49;;;;;;;0.20;0.20;;;19.60;99.90;;;;;;4990595;28;20027;-72
2022/06/05 04:14:14;;;;;;;0.60;0.60;;;19.30;99.90;;;;;;4973391;28;20069;-72
2022/06/05 04:16:41;;;;;;;0.50;0.50;;;19.10;99.90;;;;;;4972522;28;20042;-71
2022/06/05 04:19:08;;;;;;;0.55;0.50;;;18.80;99.90;;;;;;4970367;28;20034;-72
2022/06/05 04:21:36;;;;;;;0.85;0.82;;;18.70;99.90;;;;;;4954602;28;20034;-72
2022/06/05 04:24:03;;;;;;;5.30;0.73;;;18.70;99.90;;;;;;4953868;28;20023;-72
2022/06/05 04:26:32;;;;;;;0.55;0.50;;;18.70;99.90;;;;;;4954216;28;20033;-72
2022/06/05 04:28:59;;;;;;;1.13;0.95;;;18.60;99.90;;;;;;4984652;23;20475;-72
2022/06/05 04:31:37;;;;;;;0.85;0.85;;;18.50;99.90;;;;;;4954260;28;20039;-73
2022/06/05 04:34:07;;;;;;;1.13;1.10;;;18.60;99.90;;;;;;4972107;28;20034;-72
2022/06/05 04:36:33;;;;;;;1.02;0.52;;;18.50;99.90;;;;;;4975121;28;20026;-72
2022/06/05 04:38:59;;;;;;;1.35;1.00;;;18.50;99.90;;;;;;4973696;28;20546;-72
2022/06/05 04:41:26;;;;;;;0.00;0.00;;;18.50;99.90;;;;;;4957311;28;20483;-72
2022/06/05 04:43:53;;;;;;;1.60;0.68;;;18.50;99.90;;;;;;4957761;28;20038;-73
2022/06/05 04:46:21;;;;;;;1.10;1.00;;;18.50;99.90;;;;;;4957733;28;20033;-73
2022/06/05 04:48:48;;;;;;;0.57;0.57;;;18.40;99.90;;;;;;4957149;28;20042;-71
2022/06/05 04:51:15;;;;;;;1.25;0.57;;;18.40;99.90;;;;;;4957473;28;20487;-72
2022/06/05 04:53:42;;;;;;;0.57;0.57;;;18.30;99.90;;;;;;4957437;28;20054;-73
2022/06/05 04:56:13;;;;;;;2.30;0.73;;;18.40;99.90;;;;;;4974444;28;20364;-72
2022/06/05 04:58:40;;;;;;;1.48;1.08;;;18.30;99.90;;;;;;4956443;28;20070;-73
2022/06/05 05:01:19;;;;;;;0.98;0.98;;;18.30;99.90;;;;;;4957267;28;20031;-72
2022/06/05 05:03:45;;;;;;;1.42;0.98;;;18.20;99.90;;;;;;4941357;28;20081;-73
2022/06/05 05:06:12;;;;;;;0.40;0.40;;;18.20;99.90;;;;;;4974432;28;20074;-73
2022/06/05 05:08:39;;;;;;;1.35;0.85;;;18.30;99.90;;;;;;4956452;28;20097;-73
2022/06/05 05:11:05;;;;;;;1.17;0.70;;;18.20;99.90;;;;;;4974055;28;20069;-73
2022/06/05 05:13:31;;;;;;;0.30;0.30;;;18.10;99.90;;;;;;4974363;28;20509;-73
2022/06/05 05:15:57;;;;;;;1.77;1.13;;;18.10;99.90;;;;;;4986540;28;20030;-73
2022/06/05 05:18:23;;;;;;;0.00;0.00;;;18.10;99.90;;;;;;4993339;28;20027;-73
2022/06/05 05:20:50;;;;;;;1.45;0.45;;;18.10;99.90;;;;;;4993061;28;20085;-73
2022/06/05 05:23:19;;;;;;;2.03;0.82;;;18.20;99.90;;;;;;4976222;28;20293;-73
2022/06/05 05:25:46;;;;;;;1.65;0.60;;;18.20;99.90;;;;;;4976261;28;20601;-73
2022/06/05 05:28:13;;;;;;;0.20;0.20;;;18.20;99.90;;;;;;4960293;28;20038;-73
2022/06/05 05:30:44;;;;;;;2.53;1.02;;;18.20;99.90;;;;;;4992577;28;20684;-73
2022/06/05 05:33:10;;;;;;;0.82;0.82;;;18.20;99.90;;;;;;4993314;28;20031;-73
2022/06/05 05:35:36;;;;;;;0.35;0.32;;;18.20;99.90;;;;;;4993686;28;20433;-73
2022/06/05 05:38:01;;;;;;;0.20;0.20;;;18.30;99.90;;;;;;4993031;28;20030;-74
2022/06/05 05:43:11;;;;;;;1.25;1.15;;;18.30;99.90;;;;;;4993023;28;20055;-74
2022/06/05 05:45:37;;;;;;;0.30;0.30;;;18.40;99.90;;;;;;4992783;28;20658;-63
2022/06/05 05:48:03;;;;;;;1.88;1.55;;;18.40;99.90;;;;;;4976030;28;20057;-63
2022/06/05 05:50:29;;;;;;;1.15;1.05;;;18.30;99.90;;;;;;4974801;28;20033;-62
2022/06/05 05:52:54;;;;;;;1.17;0.70;;;18.60;99.90;;;;;;4992874;28;20045;-62
2022/06/05 05:55:21;;;;;;;1.08;0.68;;;18.50;99.90;;;;;;4975363;28;20238;-63
2022/06/05 05:57:48;;;;;;;0.65;0.65;;;18.70;99.90;;;;;;4993009;28;20055;-62
2022/06/05 06:00:17;;;;;;;2.67;0.93;;;18.80;99.90;;;;;;4974841;28;20034;-63
2022/06/05 06:02:44;;;;;;;0.20;0.20;;;19.00;99.90;;;;;;4957977;28;20057;-63
2022/06/05 06:05:15;;;;;;;0.52;0.52;;;19.20;99.90;;;;;;4972194;28;20074;-62
2022/06/05 06:07:42;;;;;;;0.80;0.60;;;19.30;99.90;;;;;;4973311;28;20591;-62
2022/06/05 06:10:08;;;;;;;0.43;0.43;;;19.50;99.90;;;;;;4971216;28;20034;-63
2022/06/05 06:12:34;;;;;;;0.40;0.40;;;19.50;99.90;;;;;;4973082;28;20027;-62
2022/06/05 06:15:00;;;;;;;11.13;2.10;;;19.10;99.90;;;;;;4973124;28;20042;-63
2022/06/05 06:17:26;;;;;;;0.15;0.15;;;19.20;99.90;;;;;;4973247;28;20046;-63
2022/06/05 06:19:52;;;;;;;0.93;0.93;;;19.30;99.90;;;;;;4967944;28;20106;-63
2022/06/05 06:22:19;;;;;;;0.43;0.38;;;19.50;99.90;;;;;;4972721;28;20506;-64
2022/06/05 06:24:45;;;;;;;0.38;0.38;;;19.60;99.90;;;;;;4955512;28;20065;-64
2022/06/05 06:27:11;;;;;;;0.82;0.82;;;19.50;99.90;;;;;;4955386;28;20138;-64
2022/06/05 06:29:36;;;;;;;0.52;0.52;;;19.50;99.90;;;;;;4954466;28;20039;-63
2022/06/05 06:32:03;;;;;;;5.90;3.00;;;19.40;99.90;;;;;;4972586;28;20077;-63
2022/06/05 06:34:29;;;;;;;2.30;1.20;;;19.10;99.90;;;;;;4972445;28;20023;-63
2022/06/05 06:36:55;;;;;;;0.30;0.30;;;19.20;99.90;;;;;;4972000;28;20030;-66
2022/06/05 06:39:21;;;;;;;0.60;0.57;;;19.20;99.90;;;;;;4966770;28;20066;-61
2022/06/05 06:41:47;;;;;;;0.20;0.20;;;19.20;99.90;;;;;;4954727;28;20394;-61
2022/06/05 06:44:13;;;;;;;1.58;1.05;;;18.90;99.90;;;;;;4971503;28;20026;-62
2022/06/05 06:46:39;;;;;;;0.45;0.45;;;19.00;99.90;;;;;;4972521;28;20035;-62
2022/06/05 06:49:05;;;;;;;0.77;0.43;;;18.90;99.90;;;;;;4954024;28;20487;-62
2022/06/05 06:51:32;;;;;;;1.45;1.00;;;18.80;99.90;;;;;;4954869;28;20037;-62
2022/06/05 06:53:57;;;;;;;1.55;1.33;;;18.80;99.90;;;;;;4972061;28;20041;-63
2022/06/05 06:56:28;;;;;;;0.15;0.15;;;18.90;99.90;;;;;;4971745;28;20031;-62
2022/06/05 06:58:55;;;;;;;0.57;0.57;;;18.90;99.90;;;;;;4954294;28;20830;-62
2022/06/05 07:01:21;;;;;;;1.23;0.88;;;19.00;99.90;;;;;;4955215;28;20145;-62
2022/06/05 07:03:47;;;;;;;0.50;0.50;;;18.90;99.90;;;;;;4972188;28;20399;-62
2022/06/05 07:06:14;;;;;;;0.25;0.25;;;19.00;99.90;;;;;;4972190;28;20031;-63
2022/06/05 07:08:43;;;;;;;0.30;0.30;;;19.00;99.90;;;;;;4954072;28;20046;-63
2022/06/05 07:11:12;;;;;;;2.88;1.52;;;19.10;99.90;;;;;;4954660;28;20034;-64
2022/06/05 07:13:38;;;;;;;0.98;0.60;;;19.30;99.90;;;;;;4972037;28;20102;-63
2022/06/05 07:16:07;;;;;;;0.57;0.57;;;19.60;99.90;;;;;;4972299;28;20109;-62
2022/06/05 07:18:33;;;;;;;0.10;0.10;;;19.80;99.90;;;;;;4971237;28;20129;-62
2022/06/05 07:21:12;;;;;;;0.65;0.35;;;19.90;99.90;;;;;;4971998;28;20102;-63
2022/06/05 07:23:37;;;;;;;2.30;0.93;;;20.00;99.90;;;;;;4954709;28;20472;-63
2022/06/05 07:26:06;;;;;;;2.03;1.88;;;20.10;99.90;;;;;;4971257;28;20038;-63
2022/06/05 07:28:31;;;;;;;0.65;0.47;;;20.10;99.90;;;;;;4954037;28;20035;-64
2022/06/05 07:31:00;;;;;;;0.63;0.50;;;20.20;99.90;;;;;;4971804;28;20435;-63
2022/06/05 07:33:25;;;;;;;0.60;0.60;;;20.10;99.90;;;;;;4954427;28;20034;-62
2022/06/05 07:35:59;;;;;;;7.57;0.75;;;20.10;99.90;;;;;;4971757;28;20442;-62
2022/06/05 07:38:26;;;;;;;0.08;0.08;;;20.20;99.90;;;;;;4971122;28;20034;-62
2022/06/05 07:40:52;;;;;;;1.55;1.38;;;20.10;99.90;;;;;;4954195;28;20027;-61
2022/06/05 07:43:20;;;;;;;5.07;0.93;;;19.90;99.90;;;;;;4971629;28;20045;-62
2022/06/05 07:45:46;;;;;;;0.70;0.70;;;19.80;99.90;;;;;;4971755;28;20031;-62
2022/06/05 07:48:12;;;;;;;0.28;0.28;;;19.80;99.90;;;;;;4971572;28;20157;-63
2022/06/05 07:54:26;;;;;;;0.98;0.63;;;19.80;99.90;;;;;;4970675;28;20126;-62
2022/06/05 07:56:10;;;;;;;0.43;0.43;;;19.90;99.90;;;;;;4971579;28;20031;-62
2022/06/05 07:58:36;;;;;;;1.45;0.65;;;20.00;99.90;;;;;;4970624;28;20042;-62
2022/06/05 08:01:02;;;;;;;0.90;0.55;;;20.10;99.90;;;;;;4954108;28;20022;-62
2022/06/05 08:03:28;;;;;;;0.20;0.20;;;20.00;99.90;;;;;;4971581;28;20380;-62
2022/06/05 08:05:53;;;;;;;0.00;0.00;;;20.00;99.90;;;;;;4971406;28;20022;-62
2022/06/05 08:08:19;;;;;;;8.00;0.90;;;20.30;99.90;;;;;;4971276;28;20480;-61
2022/06/05 08:10:45;;;;;;;0.28;0.28;;;20.40;99.90;;;;;;4974241;28;20137;-62
2022/06/05 08:13:10;;;;;;;0.28;0.28;;;20.60;99.90;;;;;;4975438;28;20129;-62
2022/06/05 08:15:36;;;;;;;0.43;0.43;;;20.30;99.90;;;;;;4957958;28;20031;-62
2022/06/05 08:18:02;;;;;;;3.90;1.55;;;20.30;99.90;;;;;;4975370;28;20038;-61
2022/06/05 08:20:27;;;;;;;0.73;0.73;;;20.60;99.90;;;;;;4974378;28;20113;-63
2022/06/05 08:22:53;;;;;;;0.77;0.47;;;20.60;99.90;;;;;;4975067;28;20550;-60
2022/06/05 08:25:20;;;;;;;0.08;0.08;;;20.50;99.90;;;;;;4975187;28;20063;-62
2022/06/05 08:27:46;;;;;;;0.15;0.15;;;20.40;99.90;;;;;;4975065;28;20035;-63
2022/06/05 08:30:12;;;;;;;3.58;1.13;;;20.70;99.90;;;;;;4973959;28;20045;-63
2022/06/05 08:32:38;;;;;;;0.75;0.75;;;20.80;99.90;;;;;;4957770;28;20557;-62
2022/06/05 08:35:04;;;;;;;0.70;0.30;;;20.80;99.90;;;;;;4975218;28;20034;-63
2022/06/05 08:43:40;;;;;;;0.88;0.30;;;20.40;99.90;;;;;;4931883;28;20038;-64
2022/06/05 08:46:13;;;;;;;0.80;0.28;;;20.60;99.90;;;;;;4974362;28;20039;-63
2022/06/05 08:48:49;;;;;;;0.20;0.20;;;20.80;99.90;;;;;;4973649;28;20042;-63
2022/06/05 08:51:31;;;;;;;1.55;0.90;;;20.90;99.90;;;;;;4941722;28;20031;-62
2022/06/05 08:54:06;;;;;;;0.40;0.40;;;20.90;99.90;;;;;;4974638;28;20041;-78
2022/06/05 08:56:47;;;;;;;0.30;0.30;;;21.10;99.90;;;;;;4956706;28;20030;-79
2022/06/05 08:59:27;;;;;;;0.32;0.30;;;21.40;99.90;;;;;;4957888;28;20027;-78
2022/06/05 09:02:01;;;;;;;0.32;0.32;;;21.50;99.90;;;;;;4975022;28;20391;-79
2022/06/05 09:04:54;;;;;;;0.65;0.63;;;21.60;99.90;;;;;;4975364;28;20031;-78
2022/06/05 09:07:33;;;;;;;0.13;0.13;;;21.70;99.90;;;;;;4958578;28;20617;-78
2022/06/05 09:10:15;;;;;;;2.33;1.23;;;21.70;99.90;;;;;;4954596;28;20101;-79
2022/06/05 09:12:51;;;;;;;0.65;0.65;;;21.50;99.90;;;;;;4939670;29;20059;-76
2022/06/05 09:15:44;;;;;;;0.20;0.20;;;21.50;99.90;;;;;;4955143;29;20662;-76
2022/06/05 09:18:28;;;;;;;0.55;0.47;;;21.30;99.90;;;;;;4923960;29;20027;-76
2022/06/05 09:21:05;;;;;;;1.35;0.98;;;20.90;99.90;;;;;;4937208;29;20038;-77
2022/06/05 09:23:51;;;;;;;0.77;0.77;;;21.20;99.90;;;;;;4938218;29;20027;-76
2022/06/05 09:26:33;;;;;;;0.20;0.20;;;21.20;99.90;;;;;;4922414;29;20069;-77
2022/06/05 09:29:23;;;;;;;0.85;0.85;;;21.20;99.90;;;;;;4921406;29;20031;-76
2022/06/05 09:32:01;;;;;;;0.65;0.65;;;21.10;99.90;;;;;;4954495;29;20488;-77
2022/06/05 09:34:37;;;;;;;0.30;0.30;;;21.20;99.90;;;;;;4937331;29;20073;-76
2022/06/05 09:37:42;;;;;;;0.30;0.25;;;21.20;99.90;;;;;;4938274;29;20039;-77
2022/06/05 09:40:46;;;;;;;1.58;1.27;;;21.00;99.90;;;;;;4923516;29;20038;-76
2022/06/05 09:44:03;;;;;;;0.43;0.32;;;21.30;99.90;;;;;;4938816;29;20032;-75
2022/06/05 09:46:56;;;;;;;0.38;0.38;;;21.40;99.90;;;;;;4927465;28;20082;-77
2022/06/05 09:49:54;;;;;;;0.77;0.57;;;21.80;99.90;;;;;;4936278;29;20058;-76
2022/06/05 09:52:28;;;;;;;0.65;0.52;;;21.80;99.90;;;;;;4922993;29;20027;-76
2022/06/05 09:55:14;;;;;;;2.72;1.77;;;21.90;99.90;;;;;;4954281;28;20027;-76
2022/06/05 09:58:31;;;;;;;3.80;2.13;;;21.90;99.90;;;;;;4968327;28;20194;-76
2022/06/05 10:01:33;;;;;;;7.57;1.55;;;21.80;99.90;;;;;;4928592;28;20051;-77
2022/06/05 10:04:03;;;;;;;0.68;0.68;;;22.10;99.90;;;;;;4943568;29;20019;-76
2022/06/05 10:06:50;;;;;;;1.13;1.02;;;22.10;99.90;;;;;;4953085;28;20031;-77
2022/06/05 10:09:29;;;;;;;0.47;0.47;;;22.50;99.90;;;;;;4967135;28;20486;-77
2022/06/05 10:11:55;;;;;;;0.47;0.47;;;22.90;99.90;;;;;;4956871;28;20039;-78
2022/06/05 10:14:42;;;;;;;0.73;0.32;;;22.80;99.90;;;;;;4973386;28;20046;-77
2022/06/05 10:17:31;;;;;;;0.28;0.20;;;23.10;99.90;;;;;;4972957;28;20035;-77
2022/06/05 10:20:37;;;;;;;0.32;0.20;;;23.50;99.90;;;;;;4971504;28;20104;-77
2022/06/05 10:23:35;;;;;;;0.43;0.43;;;24.00;99.90;;;;;;4973190;28;20166;-76
2022/06/05 10:26:15;;;;;;;0.68;0.68;;;24.00;99.90;;;;;;4972997;28;20057;-77
2022/06/05 10:31:28;;;;;;;0.45;0.22;;;23.20;99.90;;;;;;4989710;28;20471;-71
2022/06/05 10:34:11;;;;;;;1.20;1.13;;;23.80;99.90;;;;;;4971342;28;20035;-71
2022/06/05 10:37:22;;;;;;;0.43;0.35;;;23.40;99.90;;;;;;4972873;28;20062;-72
2022/06/05 10:40:04;;;;;;;6.53;2.47;;;23.50;99.90;;;;;;4996680;28;20089;-71
2022/06/05 10:42:44;;;;;;;1.05;0.38;;;23.90;99.90;;;;;;5006663;28;20490;-71
2022/06/05 10:45:35;;;;;;;0.80;0.80;;;23.50;99.90;;;;;;4990986;28;20628;-71
2022/06/05 10:48:41;;;;;;;0.13;0.13;;;23.50;99.90;;;;;;4991913;28;20030;-71
2022/06/05 10:51:24;;;;;;;0.57;0.57;;;24.00;99.90;;;;;;4990341;28;20041;-71
2022/06/05 10:54:35;;;;;;;0.10;0.10;;;24.00;99.90;;;;;;4991877;28;20030;-71
2022/06/05 10:57:32;;;;;;;0.20;0.20;;;24.60;99.90;;;;;;4991606;28;20513;-71
2022/06/05 11:00:19;;;;;;;0.10;0.10;;;24.40;99.90;;;;;;4996420;28;20065;-71
2022/06/05 11:03:33;;;;;;;2.00;1.02;;;24.20;99.90;;;;;;5011597;28;20030;-70
2022/06/05 11:06:08;;;;;;;2.45;1.27;;;24.10;99.90;;;;;;5010179;28;20036;-71
2022/06/05 11:08:54;;;;;;;0.73;0.45;;;24.50;99.90;;;;;;5010344;28;20044;-71
2022/06/05 11:14:21;;;;;;;3.30;1.25;;;25.00;99.90;;;;;;5009891;28;20038;-70
2022/06/05 11:17:21;;;;;;;0.77;0.60;;;24.50;99.90;;;;;;5009502;28;20041;-69
2022/06/05 11:20:24;;;;;;;1.08;0.73;;;23.90;99.90;;;;;;5008670;28;20061;-67
2022/06/05 11:23:09;;;;;;;3.15;0.77;;;23.90;99.90;;;;;;4994081;28;20064;-68
2022/06/05 11:26:05;;;;;;;0.10;0.10;;;24.00;99.90;;;;;;5009791;28;20030;-68
2022/06/05 11:29:26;;;;;;;0.47;0.32;;;24.30;99.90;;;;;;5010644;28;20044;-67
2022/06/05 11:32:21;;;;;;;0.68;0.65;;;23.90;99.90;;;;;;4914743;29;20039;-67
2022/06/05 11:35:18;;;;;;;0.30;0.30;;;23.60;99.90;;;;;;4995283;28;20038;-68
2022/06/05 11:38:38;;;;;;;0.73;0.73;;;23.30;99.90;;;;;;5009642;28;20508;-67
2022/06/05 11:41:30;;;;;;;0.30;0.30;;;23.40;99.90;;;;;;5009373;28;20038;-67
2022/06/05 11:44:46;;;;;;;0.63;0.47;;;23.40;99.90;;;;;;5008931;28;20045;-67
2022/06/05 11:47:57;;;;;;;1.10;1.00;;;23.20;99.90;;;;;;5003883;28;20112;-67
2022/06/05 11:51:00;;;;;;;0.28;0.28;;;23.30;99.90;;;;;;4964177;28;20460;-68
2022/06/05 11:54:03;;;;;;;0.35;0.20;;;23.20;99.90;;;;;;5005652;28;20097;-68
2022/06/05 11:57:02;;;;;;;0.55;0.55;;;23.10;99.90;;;;;;4990368;28;20035;-62
2022/06/05 11:59:56;;;;;;;1.73;0.70;;;23.30;99.90;;;;;;4990198;28;20053;-64
2022/06/05 12:02:55;;;;;;;1.30;1.20;;;23.30;99.90;;;;;;4989353;28;20030;-63
2022/06/05 12:06:26;;;;;;;0.38;0.35;;;23.10;99.90;;;;;;4990697;28;20045;-62
2022/06/05 12:08:59;;;;;;;0.73;0.60;;;22.90;99.90;;;;;;5001474;28;20076;-70
2022/06/05 12:12:01;;;;;;;15.35;1.05;;;22.70;99.90;;;;;;5008947;28;20107;-72
2022/06/05 12:14:43;;;;;;;3.45;1.48;;;22.50;99.90;;;;;;4980070;28;20038;-74
2022/06/05 12:17:16;;;;;;;3.70;1.48;;;22.20;99.90;;;;;;5009559;28;20030;-72
2022/06/05 12:19:49;;;;;;;1.02;0.95;;;21.80;99.90;;;;;;5007759;28;20034;-71
2022/06/05 12:22:29;;;;;;;1.52;1.38;;;21.60;99.90;;;;;;4992395;28;20053;-71
2022/06/05 12:25:12;;;;;;;0.98;0.98;;;21.30;99.90;;;;;;5008996;28;20044;-70
2022/06/05 12:27:57;;;;;;;0.88;0.52;;;21.10;99.90;;;;;;5009196;28;20386;-72
2022/06/05 12:30:49;;;;;;;2.08;1.23;;;21.30;99.90;;;;;;5009210;28;20486;-70
2022/06/05 12:33:44;;;;;;;0.47;0.47;;;21.50;99.90;;;;;;5008984;28;20034;-67
2022/06/05 12:36:27;;;;;;;0.28;0.28;;;21.70;99.90;;;;;;4989761;28;20019;-69
2022/06/05 12:39:03;;;;;;;0.20;0.20;;;22.00;99.90;;;;;;5002005;28;20026;-71
2022/06/05 12:41:57;;;;;;;0.10;0.10;;;21.90;99.90;;;;;;5008872;28;20497;-70
2022/06/05 12:44:43;;;;;;;0.15;0.08;;;22.30;99.90;;;;;;4974533;28;20066;-70
2022/06/05 12:47:36;;;;;;;0.10;0.10;;;22.20;99.90;;;;;;5010421;28;20036;-68
2022/06/05 12:50:58;;;;;;;0.10;0.10;;;22.20;99.90;;;;;;5008443;28;20034;-70
2022/06/05 12:53:54;;;;;;;0.17;0.17;;;22.50;99.90;;;;;;5007389;28;20095;-71
2022/06/05 12:56:33;;;;;;;0.45;0.45;;;22.70;99.90;;;;;;4993436;28;20026;-70
2022/06/05 12:59:23;;;;;;;0.25;0.22;;;22.80;99.90;;;;;;4991726;28;20030;-70
2022/06/05 13:02:30;;;;;;;0.13;0.13;;;23.00;99.90;;;;;;4992667;28;20038;-69
2022/06/05 13:05:18;;;;;;;0.00;0.00;;;23.10;99.90;;;;;;4993949;28;20038;-68
2022/06/05 13:08:32;;;;;;;1.35;0.43;;;22.80;99.90;;;;;;4995486;28;20121;-70
2022/06/05 13:11:29;;;;;;;0.63;0.63;;;22.70;99.90;;;;;;4997927;28;20042;-67
2022/06/05 13:14:26;;;;;;;0.90;0.73;;;22.70;99.90;;;;;;5013215;28;20489;-68
2022/06/05 13:17:07;;;;;;;0.47;0.47;;;22.80;99.90;;;;;;5012439;28;20034;-68
2022/06/05 13:19:45;;;;;;;0.20;0.20;;;22.80;99.90;;;;;;5012257;28;20030;-69
2022/06/05 13:22:36;;;;;;;0.20;0.20;;;22.60;99.90;;;;;;5012125;28;20026;-69
2022/06/05 13:25:36;;;;;;;0.43;0.40;;;22.40;99.90;;;;;;5011492;28;20049;-67
2022/06/05 13:28:40;;;;;;;0.00;0.00;;;22.30;99.90;;;;;;5013090;28;20029;-68
2022/06/05 13:32:04;;;;;;;0.40;0.30;;;22.30;99.90;;;;;;5012801;28;20131;-68
2022/06/05 13:34:57;;;;;;;0.40;0.40;;;22.50;99.90;;;;;;5013074;28;20034;-69
2022/06/05 13:37:49;;;;;;;0.38;0.38;;;22.90;99.90;;;;;;5003759;28;20062;-70
2022/06/05 13:40:56;;;;;;;1.50;0.85;;;23.40;99.90;;;;;;5010594;28;20493;-69
2022/06/05 13:43:29;;;;;;;0.35;0.35;;;23.50;99.90;;;;;;4949248;28;20092;-71
2022/06/05 13:46:09;;;;;;;1.42;0.85;;;23.50;99.90;;;;;;5013017;28;20108;-69
2022/06/05 13:49:07;;;;;;;0.15;0.15;;;23.30;99.90;;;;;;5012054;28;20033;-69
2022/06/05 13:51:39;;;;;;;0.05;0.05;;;23.90;99.90;;;;;;5012762;28;20042;-69
2022/06/05 13:54:20;;;;;;;0.47;0.22;;;24.20;99.90;;;;;;5012697;28;20041;-69
2022/06/05 13:56:52;;;;;;;;;;;24.30;99.90;;;;;;5012947;28;20045;-70
2022/06/05 13:59:27;;;;;;;0.22;0.20;;;24.10;99.90;;;;;;5011801;28;19928;-68
2022/06/05 14:02:07;;;;;;;0.50;0.30;;;24.30;99.90;;;;;;5012570;28;20030;-69
2022/06/05 14:04:52;;;;;;;0.30;0.30;;;24.40;99.90;;;;;;5012611;28;20113;-70